sensor_id;sensor_type;location;lat;lon;timestamp;P1;durP1;ratioP1;P2;durP2;ratioP2
70367;SDS011;57789;53.868;10.728;2024-01-30T00:02:22;44.03;;;17.30;;
70367;SDS011;57789;53.868;10.728;2024-01-30T00:04:48;42.17;;;20.53;;
70367;SDS011;57789;53.868;10.728;2024-01-30T00:07:13;40.83;;;17.60;;
70367;SDS011;57789;53.868;10.728;2024-01-30T00:09:39;26.63;;;11.23;;
70367;SDS011;57789;53.868;10.728;2024-01-30T00:12:05;35.90;;;15.90;;
70367;SDS011;57789;53.868;10.728;2024-01-30T00:14:31;26.03;;;10.67;;
70367;SDS011;57789;53.868;10.728;2024-01-30T00:16:57;33.47;;;12.43;;
70367;SDS011;57789;53.868;10.728;2024-01-30T00:19:22;24.03;;;9.93;;
70367;SDS011;57789;53.868;10.728;2024-01-30T00:21:48;28.30;;;12.40;;
70367;SDS011;57789;53.868;10.728;2024-01-30T00:24:13;32.80;;;12.73;;
70367;SDS011;57789;53.868;10.728;2024-01-30T00:26:39;32.23;;;13.07;;
70367;SDS011;57789;53.868;10.728;2024-01-30T00:29:05;38.63;;;11.80;;
70367;SDS011;57789;53.868;10.728;2024-01-30T00:31:31;31.57;;;11.53;;
70367;SDS011;57789;53.868;10.728;2024-01-30T00:33:56;30.60;;;13.27;;
70367;SDS011;57789;53.868;10.728;2024-01-30T00:36:22;28.63;;;11.77;;
70367;SDS011;57789;53.868;10.728;2024-01-30T00:38:48;32.90;;;11.73;;
70367;SDS011;57789;53.868;10.728;2024-01-30T00:41:13;24.10;;;9.13;;
70367;SDS011;57789;53.868;10.728;2024-01-30T00:43:39;28.00;;;8.80;;
70367;SDS011;57789;53.868;10.728;2024-01-30T00:46:05;23.67;;;10.93;;
70367;SDS011;57789;53.868;10.728;2024-01-30T00:48:31;16.57;;;8.07;;
70367;SDS011;57789;53.868;10.728;2024-01-30T00:50:56;22.17;;;9.33;;
70367;SDS011;57789;53.868;10.728;2024-01-30T00:53:22;17.23;;;8.30;;
70367;SDS011;57789;53.868;10.728;2024-01-30T00:55:48;18.30;;;7.87;;
70367;SDS011;57789;53.868;10.728;2024-01-30T00:58:13;17.73;;;9.07;;
70367;SDS011;57789;53.868;10.728;2024-01-30T01:00:39;22.70;;;8.60;;
70367;SDS011;57789;53.868;10.728;2024-01-30T01:03:05;23.20;;;11.20;;
70367;SDS011;57789;53.868;10.728;2024-01-30T01:05:31;36.43;;;12.30;;
70367;SDS011;57789;53.868;10.728;2024-01-30T01:07:57;74.73;;;36.13;;
70367;SDS011;57789;53.868;10.728;2024-01-30T01:10:23;43.53;;;19.40;;
70367;SDS011;57789;53.868;10.728;2024-01-30T01:12:48;48.73;;;18.57;;
70367;SDS011;57789;53.868;10.728;2024-01-30T01:15:14;42.60;;;16.47;;
70367;SDS011;57789;53.868;10.728;2024-01-30T01:17:40;59.90;;;22.70;;
70367;SDS011;57789;53.868;10.728;2024-01-30T01:20:06;56.80;;;19.00;;
70367;SDS011;57789;53.868;10.728;2024-01-30T01:22:33;40.73;;;16.67;;
70367;SDS011;57789;53.868;10.728;2024-01-30T01:24:59;35.00;;;13.90;;
70367;SDS011;57789;53.868;10.728;2024-01-30T01:27:26;37.77;;;20.30;;
70367;SDS011;57789;53.868;10.728;2024-01-30T01:29:52;36.20;;;17.80;;
70367;SDS011;57789;53.868;10.728;2024-01-30T01:32:18;116.17;;;46.13;;
70367;SDS011;57789;53.868;10.728;2024-01-30T01:34:44;145.27;;;61.07;;
70367;SDS011;57789;53.868;10.728;2024-01-30T01:37:10;110.80;;;52.30;;
70367;SDS011;57789;53.868;10.728;2024-01-30T01:39:35;101.17;;;44.90;;
70367;SDS011;57789;53.868;10.728;2024-01-30T01:42:01;78.00;;;36.80;;
70367;SDS011;57789;53.868;10.728;2024-01-30T01:44:27;57.80;;;26.70;;
70367;SDS011;57789;53.868;10.728;2024-01-30T01:46:53;57.07;;;24.60;;
70367;SDS011;57789;53.868;10.728;2024-01-30T01:49:19;47.23;;;21.10;;
70367;SDS011;57789;53.868;10.728;2024-01-30T01:51:46;42.10;;;20.00;;
70367;SDS011;57789;53.868;10.728;2024-01-30T01:54:13;31.73;;;16.80;;
70367;SDS011;57789;53.868;10.728;2024-01-30T01:56:40;30.93;;;14.80;;
70367;SDS011;57789;53.868;10.728;2024-01-30T01:59:08;29.00;;;14.60;;
70367;SDS011;57789;53.868;10.728;2024-01-30T02:01:35;21.03;;;10.20;;
70367;SDS011;57789;53.868;10.728;2024-01-30T02:04:01;14.60;;;7.00;;
70367;SDS011;57789;53.868;10.728;2024-01-30T02:06:27;23.43;;;10.10;;
70367;SDS011;57789;53.868;10.728;2024-01-30T02:08:53;55.70;;;23.30;;
70367;SDS011;57789;53.868;10.728;2024-01-30T02:11:20;49.37;;;24.40;;
70367;SDS011;57789;53.868;10.728;2024-01-30T02:13:47;87.67;;;38.73;;
70367;SDS011;57789;53.868;10.728;2024-01-30T02:16:12;52.20;;;23.80;;
70367;SDS011;57789;53.868;10.728;2024-01-30T02:18:38;30.53;;;13.20;;
70367;SDS011;57789;53.868;10.728;2024-01-30T02:21:08;110.27;;;53.03;;
70367;SDS011;57789;53.868;10.728;2024-01-30T02:23:34;81.50;;;39.93;;
70367;SDS011;57789;53.868;10.728;2024-01-30T02:26:02;68.97;;;34.10;;
70367;SDS011;57789;53.868;10.728;2024-01-30T02:28:28;26.57;;;11.23;;
70367;SDS011;57789;53.868;10.728;2024-01-30T02:30:54;30.70;;;15.23;;
70367;SDS011;57789;53.868;10.728;2024-01-30T02:33:19;36.27;;;15.80;;
70367;SDS011;57789;53.868;10.728;2024-01-30T02:35:47;38.10;;;15.60;;
70367;SDS011;57789;53.868;10.728;2024-01-30T02:38:13;39.50;;;17.10;;
70367;SDS011;57789;53.868;10.728;2024-01-30T02:40:38;35.43;;;15.47;;
70367;SDS011;57789;53.868;10.728;2024-01-30T02:43:04;25.77;;;10.93;;
70367;SDS011;57789;53.868;10.728;2024-01-30T02:45:30;25.93;;;11.77;;
70367;SDS011;57789;53.868;10.728;2024-01-30T02:47:55;54.80;;;23.20;;
70367;SDS011;57789;53.868;10.728;2024-01-30T02:50:21;68.97;;;31.97;;
70367;SDS011;57789;53.868;10.728;2024-01-30T02:52:47;35.43;;;17.47;;
70367;SDS011;57789;53.868;10.728;2024-01-30T02:55:12;73.93;;;36.03;;
70367;SDS011;57789;53.868;10.728;2024-01-30T02:57:38;132.97;;;58.07;;
70367;SDS011;57789;53.868;10.728;2024-01-30T03:00:05;86.93;;;42.17;;
70367;SDS011;57789;53.868;10.728;2024-01-30T03:02:33;73.17;;;36.03;;
70367;SDS011;57789;53.868;10.728;2024-01-30T03:04:59;70.17;;;32.50;;
70367;SDS011;57789;53.868;10.728;2024-01-30T03:07:25;54.30;;;24.63;;
70367;SDS011;57789;53.868;10.728;2024-01-30T03:09:51;43.13;;;18.20;;
70367;SDS011;57789;53.868;10.728;2024-01-30T03:12:16;48.67;;;22.37;;
70367;SDS011;57789;53.868;10.728;2024-01-30T03:14:42;55.07;;;25.37;;
70367;SDS011;57789;53.868;10.728;2024-01-30T03:17:08;153.53;;;69.60;;
70367;SDS011;57789;53.868;10.728;2024-01-30T03:19:33;173.03;;;77.57;;
70367;SDS011;57789;53.868;10.728;2024-01-30T03:21:59;141.13;;;63.13;;
70367;SDS011;57789;53.868;10.728;2024-01-30T03:24:25;65.30;;;33.40;;
70367;SDS011;57789;53.868;10.728;2024-01-30T03:26:50;66.63;;;31.50;;
70367;SDS011;57789;53.868;10.728;2024-01-30T03:29:16;44.80;;;19.83;;
70367;SDS011;57789;53.868;10.728;2024-01-30T03:31:42;46.67;;;19.83;;
70367;SDS011;57789;53.868;10.728;2024-01-30T03:34:07;41.67;;;20.50;;
70367;SDS011;57789;53.868;10.728;2024-01-30T03:36:33;46.60;;;21.53;;
70367;SDS011;57789;53.868;10.728;2024-01-30T03:38:59;24.93;;;10.60;;
70367;SDS011;57789;53.868;10.728;2024-01-30T03:41:26;29.33;;;15.87;;
70367;SDS011;57789;53.868;10.728;2024-01-30T03:43:51;19.77;;;9.17;;
70367;SDS011;57789;53.868;10.728;2024-01-30T03:46:17;30.00;;;10.70;;
70367;SDS011;57789;53.868;10.728;2024-01-30T03:48:43;22.53;;;9.70;;
70367;SDS011;57789;53.868;10.728;2024-01-30T03:51:10;13.37;;;7.00;;
70367;SDS011;57789;53.868;10.728;2024-01-30T03:53:44;14.87;;;7.67;;
70367;SDS011;57789;53.868;10.728;2024-01-30T03:56:13;20.07;;;9.43;;
70367;SDS011;57789;53.868;10.728;2024-01-30T03:58:39;18.00;;;8.90;;
70367;SDS011;57789;53.868;10.728;2024-01-30T04:01:05;11.13;;;5.50;;
70367;SDS011;57789;53.868;10.728;2024-01-30T04:03:30;13.83;;;4.53;;
70367;SDS011;57789;53.868;10.728;2024-01-30T04:05:56;11.30;;;5.77;;
70367;SDS011;57789;53.868;10.728;2024-01-30T04:08:22;10.10;;;4.90;;
70367;SDS011;57789;53.868;10.728;2024-01-30T04:10:48;6.80;;;4.80;;
70367;SDS011;57789;53.868;10.728;2024-01-30T04:13:13;11.23;;;5.30;;
70367;SDS011;57789;53.868;10.728;2024-01-30T04:15:39;11.50;;;5.87;;
70367;SDS011;57789;53.868;10.728;2024-01-30T04:18:05;11.53;;;5.53;;
70367;SDS011;57789;53.868;10.728;2024-01-30T04:20:31;13.33;;;5.07;;
70367;SDS011;57789;53.868;10.728;2024-01-30T04:22:56;9.67;;;4.60;;
70367;SDS011;57789;53.868;10.728;2024-01-30T04:25:22;9.23;;;4.80;;
70367;SDS011;57789;53.868;10.728;2024-01-30T04:27:48;10.17;;;5.43;;
70367;SDS011;57789;53.868;10.728;2024-01-30T04:30:14;8.30;;;4.30;;
70367;SDS011;57789;53.868;10.728;2024-01-30T04:32:39;14.23;;;5.60;;
70367;SDS011;57789;53.868;10.728;2024-01-30T04:35:05;10.37;;;5.27;;
70367;SDS011;57789;53.868;10.728;2024-01-30T04:37:31;8.00;;;4.80;;
70367;SDS011;57789;53.868;10.728;2024-01-30T04:39:57;5.50;;;3.87;;
70367;SDS011;57789;53.868;10.728;2024-01-30T04:42:23;10.20;;;5.10;;
70367;SDS011;57789;53.868;10.728;2024-01-30T04:44:49;8.60;;;5.10;;
70367;SDS011;57789;53.868;10.728;2024-01-30T04:47:14;6.67;;;4.60;;
70367;SDS011;57789;53.868;10.728;2024-01-30T04:49:40;12.97;;;5.17;;
70367;SDS011;57789;53.868;10.728;2024-01-30T04:52:06;11.57;;;5.60;;
70367;SDS011;57789;53.868;10.728;2024-01-30T04:54:33;10.00;;;5.43;;
70367;SDS011;57789;53.868;10.728;2024-01-30T04:56:59;16.80;;;4.83;;
70367;SDS011;57789;53.868;10.728;2024-01-30T04:59:25;10.00;;;5.50;;
70367;SDS011;57789;53.868;10.728;2024-01-30T05:01:51;10.20;;;6.03;;
70367;SDS011;57789;53.868;10.728;2024-01-30T05:04:16;8.20;;;5.10;;
70367;SDS011;57789;53.868;10.728;2024-01-30T05:06:42;7.93;;;4.77;;
70367;SDS011;57789;53.868;10.728;2024-01-30T05:09:09;7.83;;;4.97;;
70367;SDS011;57789;53.868;10.728;2024-01-30T05:11:38;7.57;;;5.10;;
70367;SDS011;57789;53.868;10.728;2024-01-30T05:14:04;8.93;;;5.27;;
70367;SDS011;57789;53.868;10.728;2024-01-30T05:16:30;11.97;;;6.77;;
70367;SDS011;57789;53.868;10.728;2024-01-30T05:18:57;6.97;;;4.60;;
70367;SDS011;57789;53.868;10.728;2024-01-30T05:21:23;7.80;;;5.20;;
70367;SDS011;57789;53.868;10.728;2024-01-30T05:23:49;11.20;;;5.20;;
70367;SDS011;57789;53.868;10.728;2024-01-30T05:26:14;11.87;;;5.03;;
70367;SDS011;57789;53.868;10.728;2024-01-30T05:28:40;12.30;;;5.60;;
70367;SDS011;57789;53.868;10.728;2024-01-30T05:31:05;10.13;;;5.30;;
70367;SDS011;57789;53.868;10.728;2024-01-30T05:33:31;6.97;;;5.00;;
70367;SDS011;57789;53.868;10.728;2024-01-30T05:35:57;8.60;;;5.27;;
70367;SDS011;57789;53.868;10.728;2024-01-30T05:38:22;11.53;;;6.20;;
70367;SDS011;57789;53.868;10.728;2024-01-30T05:40:48;10.00;;;5.47;;
70367;SDS011;57789;53.868;10.728;2024-01-30T05:43:14;11.83;;;6.40;;
70367;SDS011;57789;53.868;10.728;2024-01-30T05:45:40;10.00;;;6.70;;
70367;SDS011;57789;53.868;10.728;2024-01-30T05:48:06;11.03;;;6.10;;
70367;SDS011;57789;53.868;10.728;2024-01-30T05:50:31;13.97;;;7.07;;
70367;SDS011;57789;53.868;10.728;2024-01-30T05:52:57;9.13;;;6.03;;
70367;SDS011;57789;53.868;10.728;2024-01-30T05:55:23;13.17;;;6.07;;
70367;SDS011;57789;53.868;10.728;2024-01-30T05:57:48;10.20;;;6.10;;
70367;SDS011;57789;53.868;10.728;2024-01-30T06:00:14;8.57;;;5.57;;
70367;SDS011;57789;53.868;10.728;2024-01-30T06:02:40;8.50;;;5.50;;
70367;SDS011;57789;53.868;10.728;2024-01-30T06:05:06;9.20;;;5.87;;
70367;SDS011;57789;53.868;10.728;2024-01-30T06:07:32;13.30;;;6.57;;
70367;SDS011;57789;53.868;10.728;2024-01-30T06:09:58;11.23;;;6.83;;
70367;SDS011;57789;53.868;10.728;2024-01-30T06:12:27;10.90;;;5.70;;
70367;SDS011;57789;53.868;10.728;2024-01-30T06:14:53;11.80;;;6.57;;
70367;SDS011;57789;53.868;10.728;2024-01-30T06:17:22;10.73;;;6.50;;
70367;SDS011;57789;53.868;10.728;2024-01-30T06:19:48;16.37;;;6.87;;
70367;SDS011;57789;53.868;10.728;2024-01-30T06:22:13;10.70;;;6.60;;
70367;SDS011;57789;53.868;10.728;2024-01-30T06:24:40;13.97;;;7.77;;
70367;SDS011;57789;53.868;10.728;2024-01-30T06:27:05;13.83;;;6.83;;
70367;SDS011;57789;53.868;10.728;2024-01-30T06:29:31;11.20;;;5.80;;
70367;SDS011;57789;53.868;10.728;2024-01-30T06:31:57;13.43;;;6.40;;
70367;SDS011;57789;53.868;10.728;2024-01-30T06:34:22;12.53;;;6.60;;
70367;SDS011;57789;53.868;10.728;2024-01-30T06:36:49;10.70;;;7.00;;
70367;SDS011;57789;53.868;10.728;2024-01-30T06:39:14;12.10;;;6.10;;
70367;SDS011;57789;53.868;10.728;2024-01-30T06:41:40;12.97;;;6.57;;
70367;SDS011;57789;53.868;10.728;2024-01-30T06:44:06;10.10;;;6.00;;
70367;SDS011;57789;53.868;10.728;2024-01-30T06:46:33;9.87;;;6.70;;
70367;SDS011;57789;53.868;10.728;2024-01-30T06:48:59;11.10;;;6.80;;
70367;SDS011;57789;53.868;10.728;2024-01-30T06:51:24;10.70;;;6.50;;
70367;SDS011;57789;53.868;10.728;2024-01-30T06:53:50;12.97;;;5.83;;
70367;SDS011;57789;53.868;10.728;2024-01-30T06:56:16;9.70;;;6.23;;
70367;SDS011;57789;53.868;10.728;2024-01-30T06:58:46;15.60;;;6.70;;
70367;SDS011;57789;53.868;10.728;2024-01-30T07:01:12;10.37;;;7.13;;
70367;SDS011;57789;53.868;10.728;2024-01-30T07:03:39;12.37;;;6.63;;
70367;SDS011;57789;53.868;10.728;2024-01-30T07:06:04;13.23;;;7.67;;
70367;SDS011;57789;53.868;10.728;2024-01-30T07:08:30;11.13;;;7.40;;
70367;SDS011;57789;53.868;10.728;2024-01-30T07:10:55;13.53;;;7.20;;
70367;SDS011;57789;53.868;10.728;2024-01-30T07:13:21;12.90;;;8.67;;
70367;SDS011;57789;53.868;10.728;2024-01-30T07:15:47;17.47;;;8.00;;
70367;SDS011;57789;53.868;10.728;2024-01-30T07:18:13;17.80;;;7.60;;
70367;SDS011;57789;53.868;10.728;2024-01-30T07:20:39;16.33;;;8.00;;
70367;SDS011;57789;53.868;10.728;2024-01-30T07:23:11;14.50;;;8.40;;
70367;SDS011;57789;53.868;10.728;2024-01-30T07:25:39;20.53;;;10.37;;
70367;SDS011;57789;53.868;10.728;2024-01-30T07:28:06;16.00;;;9.33;;
70367;SDS011;57789;53.868;10.728;2024-01-30T07:30:34;13.67;;;8.77;;
70367;SDS011;57789;53.868;10.728;2024-01-30T07:33:00;13.23;;;7.47;;
70367;SDS011;57789;53.868;10.728;2024-01-30T07:35:26;16.40;;;7.80;;
70367;SDS011;57789;53.868;10.728;2024-01-30T07:37:52;15.60;;;8.57;;
70367;SDS011;57789;53.868;10.728;2024-01-30T07:40:17;20.90;;;7.13;;
70367;SDS011;57789;53.868;10.728;2024-01-30T07:42:43;12.60;;;6.97;;
70367;SDS011;57789;53.868;10.728;2024-01-30T07:45:09;13.00;;;7.57;;
70367;SDS011;57789;53.868;10.728;2024-01-30T07:47:34;13.50;;;7.93;;
70367;SDS011;57789;53.868;10.728;2024-01-30T07:50:00;16.93;;;8.47;;
70367;SDS011;57789;53.868;10.728;2024-01-30T07:52:26;14.63;;;8.63;;
70367;SDS011;57789;53.868;10.728;2024-01-30T07:54:52;19.03;;;7.67;;
70367;SDS011;57789;53.868;10.728;2024-01-30T07:57:20;10.03;;;6.03;;
70367;SDS011;57789;53.868;10.728;2024-01-30T07:59:46;13.53;;;7.23;;
70367;SDS011;57789;53.868;10.728;2024-01-30T08:02:11;13.90;;;8.17;;
70367;SDS011;57789;53.868;10.728;2024-01-30T08:04:37;14.60;;;8.20;;
70367;SDS011;57789;53.868;10.728;2024-01-30T08:07:03;14.43;;;7.10;;
70367;SDS011;57789;53.868;10.728;2024-01-30T08:09:29;12.17;;;7.50;;
70367;SDS011;57789;53.868;10.728;2024-01-30T08:11:55;13.27;;;7.23;;
70367;SDS011;57789;53.868;10.728;2024-01-30T08:14:20;13.67;;;7.43;;
70367;SDS011;57789;53.868;10.728;2024-01-30T08:16:46;16.07;;;8.20;;
70367;SDS011;57789;53.868;10.728;2024-01-30T08:19:11;20.60;;;8.10;;
70367;SDS011;57789;53.868;10.728;2024-01-30T08:21:37;16.50;;;8.50;;
70367;SDS011;57789;53.868;10.728;2024-01-30T08:24:03;19.27;;;9.60;;
70367;SDS011;57789;53.868;10.728;2024-01-30T08:26:29;14.00;;;7.90;;
70367;SDS011;57789;53.868;10.728;2024-01-30T08:28:56;16.10;;;8.20;;
70367;SDS011;57789;53.868;10.728;2024-01-30T08:31:21;15.30;;;6.90;;
70367;SDS011;57789;53.868;10.728;2024-01-30T08:33:47;11.20;;;7.80;;
70367;SDS011;57789;53.868;10.728;2024-01-30T08:36:14;15.73;;;8.80;;
70367;SDS011;57789;53.868;10.728;2024-01-30T08:38:41;15.50;;;9.47;;
70367;SDS011;57789;53.868;10.728;2024-01-30T08:41:08;14.03;;;8.07;;
70367;SDS011;57789;53.868;10.728;2024-01-30T08:43:34;17.30;;;8.40;;
70367;SDS011;57789;53.868;10.728;2024-01-30T08:46:00;17.93;;;8.43;;
70367;SDS011;57789;53.868;10.728;2024-01-30T08:48:26;15.80;;;8.27;;
70367;SDS011;57789;53.868;10.728;2024-01-30T08:50:52;18.40;;;8.83;;
70367;SDS011;57789;53.868;10.728;2024-01-30T08:53:18;16.43;;;8.20;;
70367;SDS011;57789;53.868;10.728;2024-01-30T08:55:44;12.30;;;7.83;;
70367;SDS011;57789;53.868;10.728;2024-01-30T08:58:10;15.87;;;8.83;;
70367;SDS011;57789;53.868;10.728;2024-01-30T09:00:36;17.47;;;8.10;;
70367;SDS011;57789;53.868;10.728;2024-01-30T09:03:01;12.00;;;7.90;;
70367;SDS011;57789;53.868;10.728;2024-01-30T09:05:28;18.33;;;8.37;;
70367;SDS011;57789;53.868;10.728;2024-01-30T09:07:53;14.80;;;8.27;;
70367;SDS011;57789;53.868;10.728;2024-01-30T09:10:19;16.23;;;8.50;;
70367;SDS011;57789;53.868;10.728;2024-01-30T09:12:45;15.57;;;8.43;;
70367;SDS011;57789;53.868;10.728;2024-01-30T09:15:11;15.20;;;8.40;;
70367;SDS011;57789;53.868;10.728;2024-01-30T09:17:37;15.43;;;8.60;;
70367;SDS011;57789;53.868;10.728;2024-01-30T09:20:03;13.37;;;8.20;;
70367;SDS011;57789;53.868;10.728;2024-01-30T09:22:30;14.60;;;8.20;;
70367;SDS011;57789;53.868;10.728;2024-01-30T09:24:59;16.30;;;8.80;;
70367;SDS011;57789;53.868;10.728;2024-01-30T09:27:24;13.20;;;7.63;;
70367;SDS011;57789;53.868;10.728;2024-01-30T09:29:50;14.90;;;8.43;;
70367;SDS011;57789;53.868;10.728;2024-01-30T09:32:16;11.20;;;7.07;;
70367;SDS011;57789;53.868;10.728;2024-01-30T09:34:42;15.87;;;8.60;;
70367;SDS011;57789;53.868;10.728;2024-01-30T09:37:08;15.07;;;8.67;;
70367;SDS011;57789;53.868;10.728;2024-01-30T09:39:34;13.97;;;8.70;;
70367;SDS011;57789;53.868;10.728;2024-01-30T09:42:02;11.70;;;8.13;;
70367;SDS011;57789;53.868;10.728;2024-01-30T09:44:34;14.27;;;9.10;;
70367;SDS011;57789;53.868;10.728;2024-01-30T09:47:02;11.60;;;8.53;;
70367;SDS011;57789;53.868;10.728;2024-01-30T09:49:33;14.80;;;8.20;;
70367;SDS011;57789;53.868;10.728;2024-01-30T09:52:00;13.27;;;8.10;;
70367;SDS011;57789;53.868;10.728;2024-01-30T09:54:29;14.23;;;8.10;;
70367;SDS011;57789;53.868;10.728;2024-01-30T09:56:56;15.63;;;8.50;;
70367;SDS011;57789;53.868;10.728;2024-01-30T09:59:22;19.53;;;8.10;;
70367;SDS011;57789;53.868;10.728;2024-01-30T10:01:48;14.50;;;8.20;;
70367;SDS011;57789;53.868;10.728;2024-01-30T10:04:15;14.00;;;7.77;;
70367;SDS011;57789;53.868;10.728;2024-01-30T10:06:41;11.73;;;8.30;;
70367;SDS011;57789;53.868;10.728;2024-01-30T10:09:07;12.87;;;7.07;;
70367;SDS011;57789;53.868;10.728;2024-01-30T10:11:34;15.13;;;8.50;;
70367;SDS011;57789;53.868;10.728;2024-01-30T10:14:00;15.13;;;7.80;;
70367;SDS011;57789;53.868;10.728;2024-01-30T10:16:26;19.53;;;8.23;;
70367;SDS011;57789;53.868;10.728;2024-01-30T10:18:52;17.30;;;7.83;;
70367;SDS011;57789;53.868;10.728;2024-01-30T10:21:17;13.80;;;7.80;;
70367;SDS011;57789;53.868;10.728;2024-01-30T10:23:43;14.50;;;7.17;;
70367;SDS011;57789;53.868;10.728;2024-01-30T10:26:09;17.17;;;8.77;;
70367;SDS011;57789;53.868;10.728;2024-01-30T10:28:35;19.07;;;9.47;;
70367;SDS011;57789;53.868;10.728;2024-01-30T10:31:01;19.67;;;8.13;;
70367;SDS011;57789;53.868;10.728;2024-01-30T10:33:30;12.17;;;7.90;;
70367;SDS011;57789;53.868;10.728;2024-01-30T10:35:59;16.50;;;7.33;;
70367;SDS011;57789;53.868;10.728;2024-01-30T10:38:30;20.23;;;8.80;;
70367;SDS011;57789;53.868;10.728;2024-01-30T10:40:57;13.80;;;7.70;;
70367;SDS011;57789;53.868;10.728;2024-01-30T10:43:26;15.70;;;8.27;;
70367;SDS011;57789;53.868;10.728;2024-01-30T10:46:03;19.00;;;11.33;;
70367;SDS011;57789;53.868;10.728;2024-01-30T10:48:37;20.50;;;11.33;;
70367;SDS011;57789;53.868;10.728;2024-01-30T10:51:08;20.87;;;8.80;;
70367;SDS011;57789;53.868;10.728;2024-01-30T10:53:35;15.10;;;8.77;;
70367;SDS011;57789;53.868;10.728;2024-01-30T10:56:02;31.30;;;18.83;;
70367;SDS011;57789;53.868;10.728;2024-01-30T10:58:29;21.23;;;12.37;;
70367;SDS011;57789;53.868;10.728;2024-01-30T11:00:55;23.10;;;14.77;;
70367;SDS011;57789;53.868;10.728;2024-01-30T11:03:22;46.93;;;26.07;;
70367;SDS011;57789;53.868;10.728;2024-01-30T11:05:51;57.90;;;29.30;;
70367;SDS011;57789;53.868;10.728;2024-01-30T11:08:26;50.53;;;26.60;;
70367;SDS011;57789;53.868;10.728;2024-01-30T11:10:56;19.00;;;10.10;;
70367;SDS011;57789;53.868;10.728;2024-01-30T11:13:28;17.43;;;9.53;;
70367;SDS011;57789;53.868;10.728;2024-01-30T11:16:02;16.87;;;11.20;;
70367;SDS011;57789;53.868;10.728;2024-01-30T11:18:30;189.37;;;101.60;;
70367;SDS011;57789;53.868;10.728;2024-01-30T11:20:58;14.53;;;10.40;;
70367;SDS011;57789;53.868;10.728;2024-01-30T11:23:39;17.70;;;8.10;;
70367;SDS011;57789;53.868;10.728;2024-01-30T11:26:05;13.07;;;7.60;;
70367;SDS011;57789;53.868;10.728;2024-01-30T11:28:36;15.50;;;7.40;;
70367;SDS011;57789;53.868;10.728;2024-01-30T11:31:04;14.73;;;8.27;;
70367;SDS011;57789;53.868;10.728;2024-01-30T11:33:32;13.10;;;8.30;;
70367;SDS011;57789;53.868;10.728;2024-01-30T11:35:59;19.20;;;10.80;;
70367;SDS011;57789;53.868;10.728;2024-01-30T11:38:26;19.97;;;11.30;;
70367;SDS011;57789;53.868;10.728;2024-01-30T11:40:53;15.30;;;9.33;;
70367;SDS011;57789;53.868;10.728;2024-01-30T11:43:23;14.07;;;8.17;;
70367;SDS011;57789;53.868;10.728;2024-01-30T11:45:49;15.47;;;8.00;;
70367;SDS011;57789;53.868;10.728;2024-01-30T11:48:16;16.63;;;8.83;;
70367;SDS011;57789;53.868;10.728;2024-01-30T11:50:43;14.07;;;9.10;;
70367;SDS011;57789;53.868;10.728;2024-01-30T11:53:11;15.30;;;8.97;;
70367;SDS011;57789;53.868;10.728;2024-01-30T11:55:37;16.10;;;8.93;;
70367;SDS011;57789;53.868;10.728;2024-01-30T11:58:03;17.67;;;10.20;;
70367;SDS011;57789;53.868;10.728;2024-01-30T12:00:29;17.10;;;9.47;;
70367;SDS011;57789;53.868;10.728;2024-01-30T12:02:56;14.50;;;9.00;;
70367;SDS011;57789;53.868;10.728;2024-01-30T12:05:22;12.37;;;7.03;;
70367;SDS011;57789;53.868;10.728;2024-01-30T12:07:48;18.90;;;9.77;;
70367;SDS011;57789;53.868;10.728;2024-01-30T12:10:14;20.10;;;11.10;;
70367;SDS011;57789;53.868;10.728;2024-01-30T12:12:41;15.80;;;8.90;;
70367;SDS011;57789;53.868;10.728;2024-01-30T12:15:09;15.47;;;8.77;;
70367;SDS011;57789;53.868;10.728;2024-01-30T12:17:35;14.77;;;8.73;;
70367;SDS011;57789;53.868;10.728;2024-01-30T12:22:35;19.40;;;10.80;;
70367;SDS011;57789;53.868;10.728;2024-01-30T12:25:13;20.03;;;10.43;;
70367;SDS011;57789;53.868;10.728;2024-01-30T12:27:39;19.00;;;10.20;;
70367;SDS011;57789;53.868;10.728;2024-01-30T12:30:08;17.07;;;10.13;;
70367;SDS011;57789;53.868;10.728;2024-01-30T12:32:35;18.60;;;10.37;;
70367;SDS011;57789;53.868;10.728;2024-01-30T12:35:11;15.40;;;7.77;;
70367;SDS011;57789;53.868;10.728;2024-01-30T12:37:38;19.57;;;9.60;;
70367;SDS011;57789;53.868;10.728;2024-01-30T12:40:04;21.30;;;14.23;;
70367;SDS011;57789;53.868;10.728;2024-01-30T12:42:31;20.17;;;12.23;;
70367;SDS011;57789;53.868;10.728;2024-01-30T12:44:57;20.90;;;11.00;;
70367;SDS011;57789;53.868;10.728;2024-01-30T12:47:26;18.60;;;8.80;;
70367;SDS011;57789;53.868;10.728;2024-01-30T12:49:52;15.80;;;11.03;;
70367;SDS011;57789;53.868;10.728;2024-01-30T12:52:21;13.97;;;8.63;;
70367;SDS011;57789;53.868;10.728;2024-01-30T12:54:47;33.10;;;15.93;;
70367;SDS011;57789;53.868;10.728;2024-01-30T12:57:13;30.63;;;15.27;;
70367;SDS011;57789;53.868;10.728;2024-01-30T12:59:39;15.23;;;9.87;;
70367;SDS011;57789;53.868;10.728;2024-01-30T13:02:05;14.63;;;7.90;;
70367;SDS011;57789;53.868;10.728;2024-01-30T13:04:31;20.03;;;9.13;;
70367;SDS011;57789;53.868;10.728;2024-01-30T13:06:57;20.33;;;8.77;;
70367;SDS011;57789;53.868;10.728;2024-01-30T13:09:23;18.30;;;10.33;;
70367;SDS011;57789;53.868;10.728;2024-01-30T13:11:49;14.57;;;8.40;;
70367;SDS011;57789;53.868;10.728;2024-01-30T13:14:16;15.73;;;8.60;;
70367;SDS011;57789;53.868;10.728;2024-01-30T13:16:42;22.20;;;11.93;;
70367;SDS011;57789;53.868;10.728;2024-01-30T13:19:07;15.43;;;8.40;;
70367;SDS011;57789;53.868;10.728;2024-01-30T13:21:33;18.87;;;9.17;;
70367;SDS011;57789;53.868;10.728;2024-01-30T13:23:59;15.83;;;8.90;;
70367;SDS011;57789;53.868;10.728;2024-01-30T13:26:24;14.47;;;9.50;;
70367;SDS011;57789;53.868;10.728;2024-01-30T13:28:50;21.03;;;11.07;;
70367;SDS011;57789;53.868;10.728;2024-01-30T13:31:16;36.77;;;15.70;;
70367;SDS011;57789;53.868;10.728;2024-01-30T13:33:42;88.73;;;41.33;;
70367;SDS011;57789;53.868;10.728;2024-01-30T13:36:09;16.70;;;9.50;;
70367;SDS011;57789;53.868;10.728;2024-01-30T13:38:36;17.80;;;9.30;;
70367;SDS011;57789;53.868;10.728;2024-01-30T13:41:02;22.43;;;12.27;;
70367;SDS011;57789;53.868;10.728;2024-01-30T13:43:28;16.87;;;9.40;;
70367;SDS011;57789;53.868;10.728;2024-01-30T13:45:54;18.80;;;7.93;;
70367;SDS011;57789;53.868;10.728;2024-01-30T13:48:20;19.27;;;9.67;;
70367;SDS011;57789;53.868;10.728;2024-01-30T13:50:46;15.53;;;9.00;;
70367;SDS011;57789;53.868;10.728;2024-01-30T13:53:12;17.40;;;9.90;;
70367;SDS011;57789;53.868;10.728;2024-01-30T13:55:38;17.37;;;9.00;;
70367;SDS011;57789;53.868;10.728;2024-01-30T13:58:06;24.17;;;14.93;;
70367;SDS011;57789;53.868;10.728;2024-01-30T14:00:32;20.30;;;12.60;;
70367;SDS011;57789;53.868;10.728;2024-01-30T14:02:58;19.90;;;12.17;;
70367;SDS011;57789;53.868;10.728;2024-01-30T14:05:24;25.60;;;12.40;;
70367;SDS011;57789;53.868;10.728;2024-01-30T14:07:51;12.93;;;7.90;;
70367;SDS011;57789;53.868;10.728;2024-01-30T14:10:17;23.43;;;12.40;;
70367;SDS011;57789;53.868;10.728;2024-01-30T14:12:43;24.40;;;14.83;;
70367;SDS011;57789;53.868;10.728;2024-01-30T14:15:09;12.73;;;7.97;;
70367;SDS011;57789;53.868;10.728;2024-01-30T14:17:36;12.30;;;7.80;;